West Kingston, Rhode Island
Current Conditions -  °F | °C
As of 4:53 AM on Saturday 20 Dec 2014 (Local Time) from KUUU Reporting Station
Overcast Overcast  
Wind Chill: 23°   Ceiling: 3300
Heat Index: 29°   Visibility: 10mi
Dew Point: 22°   Wind: 6mph
Humidity: 75%   Direction: 350°N
Pressure: 30.18"   Gusts: NA
Location:  41.48°N, 71.55°W
Report Text: KUUU 200953Z AUTO 35005KT 10SM OVC033 M02/M06 A3018 RMK AO2 SLP219 T10171056
Loading
Personal Weather Stations






























Interactive Weather Map New forecast layout! Learn more

10-Day Weather Forecast

Advertisements
Track Severe Weather on mobile